• Join FlightAware (Why Join?)
  • Login
  • US Flag 
08:11PM EDT


 

Airport Tracker/Info


-or-


 

Live Flight TrackerFlight Track Log ✈ N652DL ✈ 2012年05月30日 ✈ KSEA - KATL

Flight Track Log - Related Links

Times and Time Zones

All times are in EDT time to prevent confusion due to time zone crossing. See the N652DL flight status page for this flight to view local times or setup timezone preferences in your user account.

Time Position Orientation Groundspeed Altitude Reporting Facility
EDT Latitude Longitude Course Direction KTS MPH feet Rate Location/Type
11:12AM 47.4286 -122.3108 179° South 188 216 1,500  Level Seattle Center
11:14AM 47.3725 -122.3094 161° South 198 228 3,500 2,220 Climbing Seattle Center
11:15AM 47.3136 -122.2800 75° East 250 288 6,400 2,460 Climbing Seattle Center
11:16AM 47.3328 -122.1772 63° Northeast 283 326 8,600 2,400 Climbing Seattle Center
11:17AM 47.3694 -122.0731 62° Northeast 292 336 11,400 2,340 Climbing Seattle Center
11:18AM 47.4100 -121.9622 78° East 310 357 13,400 1,560 Climbing Seattle Center
11:19AM 47.4300 -121.8236 91° East 369 425 14,600 1,140 Climbing Seattle Center
11:20AM 47.4283 -121.6225 91° East 429 494 15,800 1,500 Climbing Seattle Center
11:21AM 47.4256 -121.4375 97° East 454 522 17,700 1,680 Climbing Seattle Center
11:22AM 47.4103 -121.2456 98° East 475 547 19,300 1,740 Climbing Seattle Center
11:23AM 47.3925 -121.0533 104° East 478 550 21,300 1,800 Climbing Seattle Center
11:24AM 47.3606 -120.8611 103° East 490 564 23,000 1,680 Climbing Seattle Center
11:25AM 47.3244 -120.6336 103° East 497 572 24,800 1,440 Climbing Seattle Center
11:26AM 47.2914 -120.4317 103° East 505 581 26,000 1,020 Climbing Seattle Center
11:27AM 47.2586 -120.2256 103° East 515 593 26,900 900 Climbing Seattle Center
11:28AM 47.2250 -120.0133 104° East 527 606 27,900 960 Climbing Seattle Center
11:29AM 47.1881 -119.7953 104° East 544 626 28,900 1,200 Climbing Seattle Center
11:30AM 47.1511 -119.5756 104° East 552 635 30,400 1,380 Climbing Seattle Center
11:31AM 47.1147 -119.3611 104° East 549 632 31,800 1,320 Climbing Seattle Center
11:32AM 47.0778 -119.1500 104° East 541 623 33,200 1,200 Climbing Seattle Center
11:33AM 47.0408 -118.9406 105° East 536 617 34,300 840 Climbing Seattle Center
11:34AM 47.0033 -118.7319 105° East 533 613 35,000 300 Climbing Seattle Center
11:35AM 46.9583 -118.4814 104° East 534 615 35,000  Level Seattle Center
11:36AM 46.9225 -118.2756 105° East 529 609 35,000  Level Seattle Center
11:37AM 46.8844 -118.0686 106° East 531 611 35,000  Level Seattle Center
11:38AM 46.8450 -117.8622 105° East 531 611 35,000  Level Seattle Center
11:39AM 46.8053 -117.6514 106° East 537 618 35,000  Level Seattle Center
11:40AM 46.7650 -117.4444 106° East 538 619 35,000  Level Seattle Center
11:41AM 46.7258 -117.2408 106° East 532 612 35,000  Level Seattle Center
11:42AM 46.6864 -117.0375 106° East 528 608 35,000  Level Seattle Center
11:44AM 46.5961 -116.5814 106° East 535 616 35,000  Level Seattle Center
11:45AM 46.5550 -116.3781 106° East 532 612 35,000  Level Seattle Center
11:46AM 46.5136 -116.1728 107° East 531 611 35,000  Level Seattle Center
11:47AM 46.4878 -116.0511 107° East 531 611 35,000  Level Salt Lake Center
11:48AM 46.4450 -115.8467 107° East 532 612 35,000  Level Salt Lake Center
11:49AM 46.4028 -115.6417 107° East 531 611 35,000  Level Salt Lake Center
11:50AM 46.3594 -115.4375 107° East 533 613 35,000  Level Salt Lake Center
11:51AM 46.3156 -115.2353 107° East 531 611 35,000  Level Salt Lake Center
11:52AM 46.2636 -114.9958 107° East 532 612 35,000  Level Salt Lake Center
11:53AM 46.2197 -114.7925 107° East 534 615 35,000  Level Salt Lake Center
11:54AM 46.1753 -114.5894 108° East 533 613 35,000  Level Salt Lake Center
11:55AM 46.1303 -114.3878 108° East 533 613 35,000  Level Salt Lake Center
11:56AM 46.0753 -114.1483 108° East 529 609 35,000  Level Salt Lake Center
11:57AM 46.0300 -113.9472 108° East 531 611 35,000  Level Salt Lake Center
11:58AM 45.9839 -113.7453 109° East 532 612 35,000  Level Salt Lake Center
11:59AM 45.9289 -113.5150 109° East 533 613 35,000  Level Salt Lake Center
12:00PM 45.8814 -113.3144 108° East 533 613 35,000  Level Salt Lake Center
12:01PM 45.8356 -113.1117 109° East 535 616 35,000  Level Salt Lake Center
12:02PM 45.7867 -112.9114 109° East 534 615 35,000  Level Salt Lake Center
12:03PM 45.7283 -112.6706 109° East 534 615 35,000  Level Salt Lake Center
12:04PM 45.6789 -112.4683 110° East 537 618 35,000  Level Salt Lake Center
12:05PM 45.6292 -112.2706 109° East 535 616 35,000  Level Salt Lake Center
12:06PM 45.5806 -112.0714 110° East 534 615 35,000  Level Salt Lake Center
12:08PM 45.5211 -111.8333 110° East 534 615 35,000  Level Salt Lake Center
12:09PM 45.4717 -111.6353 110° East 535 616 35,000  Level Salt Lake Center
12:10PM 45.4214 -111.4397 110° East 533 613 35,000  Level Salt Lake Center
12:11PM 45.3714 -111.2442 110° East 532 612 35,000  Level Salt Lake Center
12:12PM 45.3111 -111.0086 111° Southeast 534 615 35,000  Level Salt Lake Center
12:13PM 45.2597 -110.8142 111° Southeast 532 612 35,000  Level Salt Lake Center
12:14PM 45.2078 -110.6178 110° East 532 612 35,000  Level Salt Lake Center
12:15PM 45.1500 -110.3983 111° Southeast 532 612 35,000  Level Salt Lake Center
12:16PM 45.1006 -110.2178 111° Southeast 534 615 35,100  Climbing Salt Lake Center
12:17PM 45.0408 -109.9983 111° Southeast 534 615 35,100  Level Salt Lake Center
12:18PM 44.9892 -109.8047 111° Southeast 533 613 35,100 -60 Level Salt Lake Center
12:19PM 44.9292 -109.5872 111° Southeast 533 613 35,000  Descending Salt Lake Center
12:20PM 44.8772 -109.4014 112° Southeast 533 613 35,100  Climbing Salt Lake Center
12:21PM 44.8164 -109.1853 112° Southeast 533 613 35,000 -60 Descending Salt Lake Center
12:22PM 44.7642 -109.0008 112° Southeast 533 613 35,000  Level Salt Lake Center
12:23PM 44.7031 -108.7872 112° Southeast 530 610 35,100  Climbing Salt Lake Center
12:24PM 44.6517 -108.6050 112° Southeast 528 608 35,100 -60 Level Salt Lake Center
12:25PM 44.5903 -108.3936 112° Southeast 527 606 35,000 -60 Descending Salt Lake Center
12:26PM 44.5286 -108.1833 113° Southeast 527 606 35,000  Level Salt Lake Center
12:27PM 44.4747 -108.0019 113° Southeast 530 610 35,000  Level Salt Lake Center
12:28PM 44.4117 -107.7919 112° Southeast 531 611 35,000  Level Salt Lake Center
12:29PM 44.3586 -107.6117 113° Southeast 529 609 35,100  Climbing Salt Lake Center
12:30PM 44.2953 -107.4014 112° Southeast 528 608 35,000 -60 Descending Salt Lake Center
12:31PM 44.2414 -107.2200 113° Southeast 530 610 35,000  Level Salt Lake Center
12:33PM 44.1772 -107.0089 113° Southeast 531 611 35,100  Climbing Salt Lake Center
12:34PM 44.1219 -106.8289 113° Southeast 530 610 35,000 -60 Descending Salt Lake Center
12:35PM 44.0569 -106.6203 113° Southeast 529 609 35,000  Level Salt Lake Center
12:36PM 44.0014 -106.4411 113° Southeast 528 608 35,000  Level Salt Lake Center
12:37PM 43.9419 -106.2494 113° Southeast 527 606 35,000  Level Salt Lake Center
12:38PM 43.8783 -106.0397 113° Southeast 527 606 35,100  Climbing Salt Lake Center
12:38PM 43.8406 -105.9192 113° Southeast 531 611 35,000  Descending Denver Center
12:39PM 43.7764 -105.7092 114° Southeast 530 610 35,100  Climbing Denver Center
12:41PM 43.7194 -105.5311 114° Southeast 530 610 35,000 -60 Descending Denver Center
12:42PM 43.6517 -105.3239 114° Southeast 530 610 35,000  Level Denver Center
12:43PM 43.5950 -105.1453 114° Southeast 530 610 35,100  Climbing Denver Center
12:44PM 43.5275 -104.9364 114° Southeast 532 612 35,100 -60 Level Denver Center
12:45PM 43.4692 -104.7586 114° Southeast 532 612 35,000 -60 Descending Denver Center
12:46PM 43.4019 -104.5506 115° Southeast 531 611 35,000  Level Denver Center
12:47PM 43.3431 -104.3733 115° Southeast 531 611 35,100  Climbing Denver Center
12:48PM 43.2742 -104.1689 114° Southeast 528 608 35,000 -60 Descending Denver Center
12:49PM 43.2158 -103.9936 115° Southeast 527 606 35,000  Level Denver Center
12:50PM 43.1475 -103.7908 115° Southeast 525 604 35,000  Level Denver Center
12:51PM 43.0889 -103.6178 115° Southeast 523 602 35,000  Level Denver Center
12:52PM 43.0197 -103.4183 116° Southeast 520 598 35,000  Level Denver Center
12:53PM 42.9600 -103.2478 115° Southeast 519 597 35,000  Level Denver Center
12:54PM 42.8911 -103.0494 115° Southeast 518 596 35,000  Level Denver Center
12:55PM 42.8325 -102.8806 115° Southeast 516 594 35,100  Climbing Denver Center
12:56PM 42.7642 -102.6850 116° Southeast 513 590 35,000 -60 Descending Denver Center
12:57PM 42.7050 -102.5186 116° Southeast 511 588 35,000  Level Denver Center
12:58PM 42.6369 -102.3269 116° Southeast 506 582 35,000  Level Denver Center
12:59PM 42.5792 -102.1633 116° Southeast 503 579 35,000  Level Denver Center
01:00PM 42.5100 -101.9753 116° Southeast 500 575 35,000  Level Denver Center
01:01PM 42.4472 -101.8017 116° Southeast 497 572 35,100  Climbing Denver Center
01:02PM 42.3789 -101.6161 116° Southeast 494 568 35,000  Descending Denver Center
01:03PM 42.3211 -101.4561 116° Southeast 494 568 35,100  Climbing Denver Center
01:05PM 42.2533 -101.2706 117° Southeast 493 567 35,000 -60 Descending Denver Center
01:06PM 42.1939 -101.1131 117° Southeast 492 566 35,000  Level Denver Center
01:07PM 42.1244 -100.9281 117° Southeast 493 567 35,000  Level Denver Center
01:08PM 42.0644 -100.7689 117° Southeast 496 571 35,100  Climbing Denver Center
01:09PM 41.9944 -100.5831 117° Southeast 498 573 35,000  Descending Denver Center
01:10PM 41.9336 -100.4244 117° Southeast 498 573 35,100 780 Climbing Denver Center
01:11PM 41.8628 -100.2397 117° Southeast 497 572 36,700 960 Climbing Denver Center
01:12PM 41.8028 -100.0844 117° Southeast 492 566 37,100 120 Climbing Denver Center
01:13PM 41.7328 -99.9031 118° Southeast 490 564 37,000 -60 Descending Denver Center
01:14PM 41.6653 -99.7308 118° Southeast 494 568 37,000  Level Denver Center
01:15PM 41.6008 -99.5664 118° Southeast 498 573 37,100  Climbing Denver Center
01:16PM 41.5372 -99.4039 118° Southeast 496 571 37,000 -60 Descending Denver Center
01:17PM 41.4753 -99.2492 118° Southeast 480 552 37,000  Level Denver Center
01:18PM 41.4147 -99.0947 106° East 470 541 37,100  Climbing Denver Center
01:19PM 41.3764 -98.9214 104° East 484 557 37,100  Level Denver Center
01:20PM 41.3367 -98.7047 104° East 493 567 37,100 -60 Level Denver Center
01:21PM 41.3028 -98.5222 103° East 497 572 37,000  Descending Denver Center
01:22PM 41.2711 -98.3394 104° East 501 577 37,100  Climbing Denver Center
01:23PM 41.2372 -98.1572 105° East 504 580 37,100 -60 Level Denver Center
01:25PM 41.1861 -97.8975 105° East 500 575 37,000 -60 Descending Minneapolis Center
01:26PM 41.1494 -97.7186 105° East 500 575 37,000 120 Level Minneapolis Center
01:27PM 41.1128 -97.5372 108° East 506 582 37,300 540 Climbing Minneapolis Center
01:28PM 41.0692 -97.3611 117° Southeast 506 582 38,200 780 Climbing Minneapolis Center
01:29PM 41.0083 -97.2008 121° Southeast 493 567 38,900 360 Climbing Minneapolis Center
01:30PM 40.9425 -97.0569 118° Southeast 499 574 39,000  Climbing Minneapolis Center
01:31PM 40.8769 -96.8969 120° Southeast 499 574 39,000  Level Minneapolis Center
01:32PM 40.8089 -96.7397 119° Southeast 499 574 39,000  Level Minneapolis Center
01:33PM 40.7428 -96.5831 120° Southeast 499 574 39,000  Level Minneapolis Center
01:34PM 40.6744 -96.4267 120° Southeast 499 574 39,000  Level Minneapolis Center
01:35PM 40.6058 -96.2681 118° Southeast 504 580 39,000  Level Minneapolis Center
01:36PM 40.4947 -95.9978 121° Southeast 488 562 39,000  Level Kansas City Center
01:37PM 40.4175 -95.8272 121° Southeast 488 562 39,000  Level Kansas City Center
01:38PM 40.3483 -95.6736 121° Southeast 493 567 39,000  Level Kansas City Center
01:39PM 40.2850 -95.5339 121° Southeast 493 567 39,000  Level Kansas City Center
01:40PM 40.2153 -95.3833 120° Southeast 493 567 39,000  Level Kansas City Center
01:41PM 40.1394 -95.2117 121° Southeast 493 567 39,000  Level Kansas City Center
01:42PM 40.0694 -95.0617 121° Southeast 493 567 39,000  Level Kansas City Center
01:43PM 39.9969 -94.9067 121° Southeast 501 577 39,000  Level Kansas City Center
01:44PM 39.9328 -94.7683 121° Southeast 496 571 39,000  Level Kansas City Center
01:45PM 39.8539 -94.5978 121° Southeast 496 571 39,000  Level Kansas City Center
01:46PM 39.7831 -94.4467 121° Southeast 496 571 39,000  Level Kansas City Center
01:47PM 39.7122 -94.2956 121° Southeast 496 571 39,000  Level Kansas City Center
01:48PM 39.6450 -94.1528 122° Southeast 496 571 39,000  Level Kansas City Center
01:49PM 39.5736 -94.0025 122° Southeast 496 571 39,000  Level Kansas City Center
01:50PM 39.4936 -93.8364 123° Southeast 496 571 39,000  Level Kansas City Center
01:51PM 39.4197 -93.6867 122° Southeast 496 571 39,000  Level Kansas City Center
01:52PM 39.3456 -93.5317 121° Southeast 496 571 39,000  Level Kansas City Center
01:53PM 39.2736 -93.3800 123° Southeast 491 565 39,000  Level Kansas City Center
01:54PM 39.2011 -93.2336 122° Southeast 497 572 39,000  Level Kansas City Center
01:55PM 39.1350 -93.0958 122° Southeast 489 563 39,000  Level Kansas City Center
01:56PM 39.0600 -92.9419 122° Southeast 496 571 39,000  Level Kansas City Center
01:57PM 38.9914 -92.7994 122° Southeast 485 558 39,000  Level Kansas City Center
01:58PM 38.9183 -92.6517 122° Southeast 480 552 39,000  Level Kansas City Center
01:59PM 38.8450 -92.5017 123° Southeast 485 558 39,000  Level Kansas City Center
02:00PM 38.7694 -92.3519 122° Southeast 491 565 39,000  Level Kansas City Center
02:01PM 38.6981 -92.2050 122° Southeast 491 565 39,000  Level Kansas City Center
02:02PM 38.6242 -92.0558 123° Southeast 491 565 39,000  Level Kansas City Center
02:03PM 38.5500 -91.9097 123° Southeast 491 565 39,000  Level Kansas City Center
02:04PM 38.4739 -91.7611 124° Southeast 491 565 39,000  Level Kansas City Center
02:05PM 38.3994 -91.6181 123° Southeast 491 565 39,000  Level Kansas City Center
02:06PM 38.3164 -91.4572 125° Southeast 491 565 39,000  Level Kansas City Center
02:07PM 38.2461 -91.3281 123° Southeast 491 565 39,000  Level Kansas City Center
02:08PM 38.1647 -91.1703 123° Southeast 491 565 39,000  Level Kansas City Center
02:09PM 38.0964 -91.0389 123° Southeast 491 565 39,000  Level Kansas City Center
02:10PM 38.0167 -90.8844 124° Southeast 485 558 39,000  Level Kansas City Center
02:11PM 37.9481 -90.7558 124° Southeast 485 558 39,100  Climbing Kansas City Center
02:12PM 37.8658 -90.5997 123° Southeast 475 547 39,000 -60 Descending Kansas City Center
02:13PM 37.7922 -90.4589 124° Southeast 480 552 39,000  Level Kansas City Center
02:14PM 37.7275 -90.3364 123° Southeast 472 543 39,000  Level Kansas City Center
02:15PM 37.6536 -90.1936 117° Southeast 477 549 39,000  Level Kansas City Center
02:16PM 37.5964 -90.0525 117° Southeast 482 555 39,000  Level Kansas City Center
02:18PM 37.4614 -89.7247 117° Southeast 478 550 39,000  Level Memphis Center
02:19PM 37.3981 -89.5686 118° Southeast 488 562 39,000  Level Memphis Center
02:20PM 37.3344 -89.4178 118° Southeast 488 562 39,000  Level Memphis Center
02:21PM 37.2686 -89.2597 118° Southeast 488 562 39,000  Level Memphis Center
02:22PM 37.2047 -89.1069 118° Southeast 493 567 39,000  Level Memphis Center
02:23PM 37.1383 -88.9492 118° Southeast 498 573 39,000  Level Memphis Center
02:24PM 37.0742 -88.7969 119° Southeast 498 573 39,000  Level Memphis Center
02:25PM 37.0075 -88.6450 118° Southeast 492 566 39,000  Level Memphis Center
02:26PM 36.9428 -88.4931 118° Southeast 497 572 39,000  Level Memphis Center
02:27PM 36.8736 -88.3314 118° Southeast 491 565 39,000 -720 Level Memphis Center
02:28PM 36.8086 -88.1803 121° Southeast 485 558 37,600 -1,020 Descending Memphis Center
02:29PM 36.7350 -88.0269 118° Southeast 511 588 37,000 -300 Descending Memphis Center
02:30PM 36.6672 -87.8683 119° Southeast 516 594 37,000  Level Memphis Center
02:31PM 36.5994 -87.7156 119° Southeast 516 594 37,000  Level Memphis Center
02:32PM 36.5294 -87.5603 131° Southeast 516 594 37,000  Level Memphis Center
02:33PM 36.4389 -87.4292 137° Southeast 511 588 37,000 -300 Level Memphis Center
02:34PM 36.3358 -87.3092 137° Southeast 505 581 36,500 -720 Descending Memphis Center
02:35PM 36.2328 -87.1897 137° Southeast 505 581 35,600 -960 Descending Memphis Center
02:36PM 36.1297 -87.0728 136° Southeast 499 574 34,600 -1,320 Descending Memphis Center
02:37PM 36.0347 -86.9586 136° Southeast 489 563 33,000 -840 Descending Memphis Center
02:38PM 35.9356 -86.8422 136° Southeast 484 557 33,000  Level Memphis Center
02:39PM 35.8408 -86.7311 135° Southeast 478 550 33,000  Level Memphis Center
02:40PM 35.7456 -86.6150 136° Southeast 478 550 33,000  Level Memphis Center
02:43PM 35.5378 -86.3689 137° Southeast 473 544 33,000 -300 Level Atlanta Center
02:44PM 35.4294 -86.2461 136° Southeast 473 544 32,100 -1,200 Descending Atlanta Center
02:45PM 35.3311 -86.1314 136° Southeast 478 550 30,700 -1,620 Descending Atlanta Center
02:46PM 35.2308 -86.0144 136° Southeast 491 565 28,900 -1,500 Descending Atlanta Center
02:47PM 35.1408 -85.9081 140° Southeast 491 565 27,700 -1,260 Descending Atlanta Center
02:48PM 35.0358 -85.8017 147° Southeast 491 565 26,500 -1,740 Descending Atlanta Center
02:49PM 34.9142 -85.7056 147° Southeast 481 554 24,300 -1,260 Descending Atlanta Center
02:50PM 34.8150 -85.6275 148° Southeast 456 525 24,000 -180 Descending Atlanta Center
02:51PM 34.7178 -85.5525 147° Southeast 435 501 24,000  Level Atlanta Center
02:52PM 34.6228 -85.4775 147° Southeast 422 486 24,000 -480 Level Atlanta Center
02:53PM 34.5256 -85.4003 148° Southeast 417 480 23,100 -1,500 Descending Atlanta Center
02:54PM 34.4344 -85.3308 146° Southeast 412 474 21,100 -2,040 Descending Atlanta Center
02:55PM 34.3456 -85.2589 149° Southeast 400 460 19,100 -2,040 Descending Atlanta Center
02:56PM 34.2542 -85.1922 147° Southeast 394 453 17,100 -2,040 Descending Atlanta Center
02:57PM 34.1672 -85.1233 135° Southeast 388 447 15,100 -1,620 Descending Atlanta Center
02:58PM 34.0950 -85.0347 133° Southeast 377 434 14,000 -600 Descending Atlanta Center
02:59PM 34.0247 -84.9436 133° Southeast 367 422 14,000  Level Atlanta Center
03:00PM 33.9544 -84.8528 134° Southeast 367 422 14,000 -360 Level Atlanta Center
03:01PM 33.8839 -84.7644 127° Southeast 367 422 13,300 -1,320 Descending Atlanta Center
03:01PM 33.8333 -84.6833 140° Southeast 360 414 11,600 -1,320 Descending Atlanta TRACON
03:02PM 33.7667 -84.6167 116° Southeast 331 381 11,000 -360 Descending Atlanta TRACON
03:03PM 33.7333 -84.5333 90° East 263 303 11,000 -840 Level Atlanta TRACON
03:04PM 33.7333 -84.4500 90° East 249 287 9,400 -1,680 Descending Atlanta TRACON
03:05PM 33.7333 -84.3667 90° East 236 272 7,700 -1,860 Descending Atlanta TRACON
03:06PM 33.7333 -84.3000 129° Southeast 224 258 5,700 -1,860 Descending Atlanta TRACON
03:07PM 33.7000 -84.2500 209° Southwest 230 265 4,000 -1,200 Descending Atlanta TRACON
03:08PM 33.6500 -84.2833 270° West 200 230 3,400 -900 Descending Atlanta TRACON
03:10PM 33.6500 -84.4000 220° Southwest 144 166 1,300 -1,080 Descending Atlanta TRACON
03:18PM 33.6333 -84.4167 220° Southwest  Level FlightAware Approximate